sensor_id;sensor_type;location;lat;lon;timestamp;pressure;altitude;pressure_sealevel;temperature;humidity
20897;BME280;10608;42.600;23.398;2022-10-24T00:01:23;53148.03;;;-138.15;67.59
20897;BME280;10608;42.600;23.398;2022-10-24T00:03:49;53165.78;;;-138.15;68.00
20897;BME280;10608;42.600;23.398;2022-10-24T00:06:15;53136.19;;;-138.15;68.29
20897;BME280;10608;42.600;23.398;2022-10-24T00:08:42;53159.88;;;-138.15;67.38
20897;BME280;10608;42.600;23.398;2022-10-24T00:11:22;53167.75;;;-138.15;66.78
20897;BME280;10608;42.600;23.398;2022-10-24T00:13:48;53140.13;;;-138.15;66.23
20897;BME280;10608;42.600;23.398;2022-10-24T00:16:15;53144.09;;;-138.15;66.84
20897;BME280;10608;42.600;23.398;2022-10-24T00:18:41;53159.88;;;-138.15;68.09
20897;BME280;10608;42.600;23.398;2022-10-24T00:21:07;53159.88;;;-138.15;68.89
20897;BME280;10608;42.600;23.398;2022-10-24T00:23:33;53155.91;;;-138.15;69.47
20897;BME280;10608;42.600;23.398;2022-10-24T00:25:59;53159.88;;;-138.15;70.97
20897;BME280;10608;42.600;23.398;2022-10-24T00:28:27;53144.09;;;-138.15;70.90
20897;BME280;10608;42.600;23.398;2022-10-24T00:30:52;53136.19;;;-138.15;71.42
20897;BME280;10608;42.600;23.398;2022-10-24T00:33:18;53151.97;;;-138.15;71.51
20897;BME280;10608;42.600;23.398;2022-10-24T00:35:44;53132.25;;;-138.15;70.70
20897;BME280;10608;42.600;23.398;2022-10-24T00:38:09;53144.09;;;-138.15;70.31
20897;BME280;10608;42.600;23.398;2022-10-24T00:40:35;53157.91;;;-138.15;70.28
20897;BME280;10608;42.600;23.398;2022-10-24T00:43:00;53157.91;;;-138.15;70.18
20897;BME280;10608;42.600;23.398;2022-10-24T00:45:47;53177.63;;;-138.15;71.52
20897;BME280;10608;42.600;23.398;2022-10-24T00:50:43;53150.00;;;-138.15;71.76
20897;BME280;10608;42.600;23.398;2022-10-24T00:53:09;53136.19;;;-138.15;71.56
20897;BME280;10608;42.600;23.398;2022-10-24T00:55:34;53171.69;;;-138.15;71.49
20897;BME280;10608;42.600;23.398;2022-10-24T00:58:00;53169.72;;;-138.15;71.61
20897;BME280;10608;42.600;23.398;2022-10-24T01:00:32;53155.91;;;-138.15;72.02
20897;BME280;10608;42.600;23.398;2022-10-24T01:02:57;53151.97;;;-138.15;72.29
20897;BME280;10608;42.600;23.398;2022-10-24T01:05:26;53144.09;;;-138.15;71.85
20897;BME280;10608;42.600;23.398;2022-10-24T01:08:02;53136.19;;;-138.15;71.94
20897;BME280;10608;42.600;23.398;2022-10-24T01:10:36;53136.19;;;-138.15;72.49
20897;BME280;10608;42.600;23.398;2022-10-24T01:15:41;53187.47;;;-138.15;72.63
20897;BME280;10608;42.600;23.398;2022-10-24T01:18:16;53136.19;;;-138.15;72.60
20897;BME280;10608;42.600;23.398;2022-10-24T01:25:52;53193.41;;;-138.15;72.28
20897;BME280;10608;42.600;23.398;2022-10-24T01:28:49;53179.59;;;-138.15;71.96
20897;BME280;10608;42.600;23.398;2022-10-24T01:31:27;53151.97;;;-138.15;72.63
20897;BME280;10608;42.600;23.398;2022-10-24T01:34:00;53175.66;;;-138.15;73.01
20897;BME280;10608;42.600;23.398;2022-10-24T01:36:39;53187.47;;;-138.15;73.97
20897;BME280;10608;42.600;23.398;2022-10-24T01:39:13;53159.88;;;-138.15;74.07
20897;BME280;10608;42.600;23.398;2022-10-24T01:41:41;53151.97;;;-138.15;73.78
20897;BME280;10608;42.600;23.398;2022-10-24T01:44:15;53136.19;;;-138.15;72.93
20897;BME280;10608;42.600;23.398;2022-10-24T01:46:47;53175.66;;;-138.15;73.58
20897;BME280;10608;42.600;23.398;2022-10-24T01:49:17;53128.31;;;-138.15;73.71
20897;BME280;10608;42.600;23.398;2022-10-24T01:51:45;53163.81;;;-138.15;73.11
20897;BME280;10608;42.600;23.398;2022-10-24T01:54:11;53142.13;;;-138.15;74.02
20897;BME280;10608;42.600;23.398;2022-10-24T01:56:37;53146.06;;;-138.15;73.63
20897;BME280;10608;42.600;23.398;2022-10-24T01:59:36;53148.03;;;-138.15;73.23
20897;BME280;10608;42.600;23.398;2022-10-24T02:01:57;53153.94;;;-138.15;75.03
20897;BME280;10608;42.600;23.398;2022-10-24T02:04:26;53163.81;;;-138.15;75.18
20897;BME280;10608;42.600;23.398;2022-10-24T02:06:55;53151.97;;;-138.15;76.83
20897;BME280;10608;42.600;23.398;2022-10-24T02:09:21;53163.81;;;-138.15;77.95
20897;BME280;10608;42.600;23.398;2022-10-24T02:11:50;53155.91;;;-138.15;78.00
20897;BME280;10608;42.600;23.398;2022-10-24T02:14:26;53177.63;;;-138.15;78.33
20897;BME280;10608;42.600;23.398;2022-10-24T02:16:55;53159.88;;;-138.15;77.13
20897;BME280;10608;42.600;23.398;2022-10-24T02:19:20;53148.03;;;-138.15;76.84
20897;BME280;10608;42.600;23.398;2022-10-24T02:22:07;53140.13;;;-138.15;76.69
20897;BME280;10608;42.600;23.398;2022-10-24T02:24:44;53175.66;;;-138.15;76.52
20897;BME280;10608;42.600;23.398;2022-10-24T02:27:33;53173.69;;;-138.15;77.51
20897;BME280;10608;42.600;23.398;2022-10-24T02:30:19;53199.31;;;-138.15;76.80
20897;BME280;10608;42.600;23.398;2022-10-24T02:32:51;53171.69;;;-138.15;77.88
20897;BME280;10608;42.600;23.398;2022-10-24T02:35:22;53163.81;;;-138.15;77.28
20897;BME280;10608;42.600;23.398;2022-10-24T02:37:53;53167.75;;;-138.15;77.91
20897;BME280;10608;42.600;23.398;2022-10-24T02:40:20;53159.88;;;-138.15;78.81
20897;BME280;10608;42.600;23.398;2022-10-24T02:42:49;53169.72;;;-138.15;78.16
20897;BME280;10608;42.600;23.398;2022-10-24T02:45:16;53146.06;;;-138.15;77.55
20897;BME280;10608;42.600;23.398;2022-10-24T02:47:43;53150.00;;;-138.15;77.54
20897;BME280;10608;42.600;23.398;2022-10-24T02:50:10;53138.16;;;-138.15;78.21
20897;BME280;10608;42.600;23.398;2022-10-24T02:52:38;53167.75;;;-138.15;78.12
20897;BME280;10608;42.600;23.398;2022-10-24T02:55:04;53157.91;;;-138.15;77.50
20897;BME280;10608;42.600;23.398;2022-10-24T02:57:30;53161.84;;;-138.15;77.98
20897;BME280;10608;42.600;23.398;2022-10-24T02:59:56;53173.69;;;-138.15;77.33
20897;BME280;10608;42.600;23.398;2022-10-24T03:02:21;53161.84;;;-138.15;77.90
20897;BME280;10608;42.600;23.398;2022-10-24T03:04:47;53171.69;;;-138.15;79.05
20897;BME280;10608;42.600;23.398;2022-10-24T03:07:13;53175.66;;;-138.15;78.07
20897;BME280;10608;42.600;23.398;2022-10-24T03:09:39;53175.66;;;-138.15;77.76
20897;BME280;10608;42.600;23.398;2022-10-24T03:12:04;53211.16;;;-138.15;77.22
20897;BME280;10608;42.600;23.398;2022-10-24T03:14:30;53187.47;;;-138.15;77.05
20897;BME280;10608;42.600;23.398;2022-10-24T03:16:55;53167.75;;;-138.15;76.17
20897;BME280;10608;42.600;23.398;2022-10-24T03:19:21;53187.47;;;-138.15;75.94
20897;BME280;10608;42.600;23.398;2022-10-24T03:21:47;53155.91;;;-138.15;75.94
20897;BME280;10608;42.600;23.398;2022-10-24T03:24:12;53177.63;;;-138.15;75.12
20897;BME280;10608;42.600;23.398;2022-10-24T03:26:38;53146.06;;;-138.15;75.30
20897;BME280;10608;42.600;23.398;2022-10-24T03:29:03;53163.81;;;-138.15;75.58
20897;BME280;10608;42.600;23.398;2022-10-24T03:31:30;53187.47;;;-138.15;75.19
20897;BME280;10608;42.600;23.398;2022-10-24T03:33:56;53191.44;;;-138.15;75.15
20897;BME280;10608;42.600;23.398;2022-10-24T03:36:22;53169.72;;;-138.15;74.91
20897;BME280;10608;42.600;23.398;2022-10-24T03:38:48;53195.38;;;-138.15;74.63
20897;BME280;10608;42.600;23.398;2022-10-24T03:41:13;53165.78;;;-138.15;74.99
20897;BME280;10608;42.600;23.398;2022-10-24T03:43:38;53189.47;;;-138.15;75.13
20897;BME280;10608;42.600;23.398;2022-10-24T03:46:04;53159.88;;;-138.15;74.21
20897;BME280;10608;42.600;23.398;2022-10-24T03:48:29;53173.69;;;-138.15;74.83
20897;BME280;10608;42.600;23.398;2022-10-24T03:50:55;53177.63;;;-138.15;74.39
20897;BME280;10608;42.600;23.398;2022-10-24T03:53:20;53148.03;;;-138.15;74.28
20897;BME280;10608;42.600;23.398;2022-10-24T03:55:46;53191.44;;;-138.15;75.56
20897;BME280;10608;42.600;23.398;2022-10-24T03:58:11;53159.88;;;-138.15;74.78
20897;BME280;10608;42.600;23.398;2022-10-24T04:00:36;53159.88;;;-138.15;74.30
20897;BME280;10608;42.600;23.398;2022-10-24T04:03:05;53191.44;;;-138.15;74.79
20897;BME280;10608;42.600;23.398;2022-10-24T04:05:31;53159.88;;;-138.15;75.12
20897;BME280;10608;42.600;23.398;2022-10-24T04:07:56;53155.91;;;-138.15;75.70
20897;BME280;10608;42.600;23.398;2022-10-24T04:10:22;53161.84;;;-138.15;75.63
20897;BME280;10608;42.600;23.398;2022-10-24T04:12:47;53153.94;;;-138.15;76.04
20897;BME280;10608;42.600;23.398;2022-10-24T04:15:13;53183.53;;;-138.15;76.57
20897;BME280;10608;42.600;23.398;2022-10-24T04:17:38;53148.03;;;-138.15;76.46
20897;BME280;10608;42.600;23.398;2022-10-24T04:20:05;53187.47;;;-138.15;77.52
20897;BME280;10608;42.600;23.398;2022-10-24T04:22:30;53153.94;;;-138.15;77.03
20897;BME280;10608;42.600;23.398;2022-10-24T04:24:56;53171.69;;;-138.15;77.17
20897;BME280;10608;42.600;23.398;2022-10-24T04:27:21;53187.47;;;-138.15;78.21
20897;BME280;10608;42.600;23.398;2022-10-24T04:29:47;53163.81;;;-138.15;78.37
20897;BME280;10608;42.600;23.398;2022-10-24T04:32:12;53183.53;;;-138.15;78.07
20897;BME280;10608;42.600;23.398;2022-10-24T04:34:38;53175.66;;;-138.15;77.79
20897;BME280;10608;42.600;23.398;2022-10-24T04:37:04;53144.09;;;-138.15;78.65
20897;BME280;10608;42.600;23.398;2022-10-24T04:39:29;53148.03;;;-138.15;79.28
20897;BME280;10608;42.600;23.398;2022-10-24T04:41:55;53169.72;;;-138.15;79.78
20897;BME280;10608;42.600;23.398;2022-10-24T04:44:20;53175.66;;;-138.15;80.74
20897;BME280;10608;42.600;23.398;2022-10-24T04:46:45;53163.81;;;-138.15;81.41
20897;BME280;10608;42.600;23.398;2022-10-24T04:49:11;53171.69;;;-138.15;80.54
20897;BME280;10608;42.600;23.398;2022-10-24T04:51:36;53142.13;;;-138.15;80.62
20897;BME280;10608;42.600;23.398;2022-10-24T04:54:02;53187.47;;;-138.15;78.95
20897;BME280;10608;42.600;23.398;2022-10-24T04:56:27;53144.09;;;-138.15;78.44
20897;BME280;10608;42.600;23.398;2022-10-24T04:58:53;53163.81;;;-138.15;77.41
20897;BME280;10608;42.600;23.398;2022-10-24T05:01:18;53173.69;;;-138.15;78.11
20897;BME280;10608;42.600;23.398;2022-10-24T05:03:43;53138.16;;;-138.15;77.58
20897;BME280;10608;42.600;23.398;2022-10-24T05:06:09;53191.44;;;-138.15;78.34
20897;BME280;10608;42.600;23.398;2022-10-24T05:08:34;53144.09;;;-138.15;77.96
20897;BME280;10608;42.600;23.398;2022-10-24T05:11:00;53173.69;;;-138.15;76.86
20897;BME280;10608;42.600;23.398;2022-10-24T05:13:26;53159.88;;;-138.15;75.45
20897;BME280;10608;42.600;23.398;2022-10-24T05:15:51;53167.75;;;-138.15;75.59
20897;BME280;10608;42.600;23.398;2022-10-24T05:18:17;53175.66;;;-138.15;74.78
20897;BME280;10608;42.600;23.398;2022-10-24T05:20:42;53195.38;;;-138.15;73.78
20897;BME280;10608;42.600;23.398;2022-10-24T05:23:08;53165.78;;;-138.15;73.65
20897;BME280;10608;42.600;23.398;2022-10-24T05:25:33;53155.91;;;-138.15;73.68
20897;BME280;10608;42.600;23.398;2022-10-24T05:27:59;53165.78;;;-138.15;72.82
20897;BME280;10608;42.600;23.398;2022-10-24T05:30:24;53148.03;;;-138.15;70.90
20897;BME280;10608;42.600;23.398;2022-10-24T05:32:50;53169.72;;;-138.15;70.08
20897;BME280;10608;42.600;23.398;2022-10-24T05:35:16;53175.66;;;-138.15;68.48
20897;BME280;10608;42.600;23.398;2022-10-24T05:37:41;53159.88;;;-138.15;66.10
20897;BME280;10608;42.600;23.398;2022-10-24T05:40:09;53132.25;;;-138.15;61.68
20897;BME280;10608;42.600;23.398;2022-10-24T05:42:35;53110.56;;;-138.15;58.69
20897;BME280;10608;42.600;23.398;2022-10-24T05:45:04;53098.72;;;-138.15;58.31
20897;BME280;10608;42.600;23.398;2022-10-24T05:47:30;53155.91;;;-138.15;55.97
20897;BME280;10608;42.600;23.398;2022-10-24T05:49:55;53144.09;;;-138.15;55.25
20897;BME280;10608;42.600;23.398;2022-10-24T05:52:20;53150.00;;;-138.15;52.12
20897;BME280;10608;42.600;23.398;2022-10-24T05:54:46;53144.09;;;-138.15;50.13
20897;BME280;10608;42.600;23.398;2022-10-24T05:57:11;53155.91;;;-138.15;46.81
20897;BME280;10608;42.600;23.398;2022-10-24T05:59:37;53112.53;;;-138.15;45.93
20897;BME280;10608;42.600;23.398;2022-10-24T06:02:02;53120.41;;;-138.15;44.24
20897;BME280;10608;42.600;23.398;2022-10-24T06:04:28;53112.53;;;-138.15;46.17
20897;BME280;10608;42.600;23.398;2022-10-24T06:06:53;53116.47;;;-138.15;41.42
20897;BME280;10608;42.600;23.398;2022-10-24T06:09:18;53084.91;;;-138.15;37.76
20897;BME280;10608;42.600;23.398;2022-10-24T06:11:44;53079.00;;;-138.15;35.50
20897;BME280;10608;42.600;23.398;2022-10-24T06:14:09;53073.06;;;-138.15;34.12
20897;BME280;10608;42.600;23.398;2022-10-24T06:16:35;53037.56;;;-138.15;31.58
20897;BME280;10608;42.600;23.398;2022-10-24T06:19:00;53045.47;;;-138.15;29.58
20897;BME280;10608;42.600;23.398;2022-10-24T06:21:26;52998.13;;;-138.15;28.25
20897;BME280;10608;42.600;23.398;2022-10-24T06:23:52;53051.38;;;-138.15;27.78
20897;BME280;10608;42.600;23.398;2022-10-24T06:26:17;53049.41;;;-138.15;30.75
20897;BME280;10608;42.600;23.398;2022-10-24T06:28:43;53037.56;;;-138.15;30.42
20897;BME280;10608;42.600;23.398;2022-10-24T06:31:08;53065.19;;;-138.15;30.39
20897;BME280;10608;42.600;23.398;2022-10-24T06:33:36;53041.50;;;-138.15;27.75
20897;BME280;10608;42.600;23.398;2022-10-24T06:36:03;53015.88;;;-138.15;25.75
20897;BME280;10608;42.600;23.398;2022-10-24T06:38:30;52982.34;;;-138.15;24.31
20897;BME280;10608;42.600;23.398;2022-10-24T06:40:56;53039.53;;;-138.15;26.00
20897;BME280;10608;42.600;23.398;2022-10-24T06:43:21;53009.94;;;-138.15;26.52
20897;BME280;10608;42.600;23.398;2022-10-24T06:45:47;53015.88;;;-138.15;25.34
20897;BME280;10608;42.600;23.398;2022-10-24T06:48:12;53047.44;;;-138.15;28.07
20897;BME280;10608;42.600;23.398;2022-10-24T06:50:38;53049.41;;;-138.15;27.82
20897;BME280;10608;42.600;23.398;2022-10-24T06:53:07;53043.47;;;-138.15;29.32
20897;BME280;10608;42.600;23.398;2022-10-24T06:55:33;53033.63;;;-138.15;27.21
20897;BME280;10608;42.600;23.398;2022-10-24T06:57:59;53041.50;;;-138.15;25.30
20897;BME280;10608;42.600;23.398;2022-10-24T07:00:25;52988.25;;;-138.15;23.97
20897;BME280;10608;42.600;23.398;2022-10-24T07:02:51;52978.38;;;-138.15;23.67
20897;BME280;10608;42.600;23.398;2022-10-24T07:05:16;52986.28;;;-138.15;23.40
20897;BME280;10608;42.600;23.398;2022-10-24T07:07:43;52974.44;;;-138.15;23.53
20897;BME280;10608;42.600;23.398;2022-10-24T07:10:11;52998.13;;;-138.15;23.78
20897;BME280;10608;42.600;23.398;2022-10-24T07:12:37;53039.53;;;-138.15;26.98
20897;BME280;10608;42.600;23.398;2022-10-24T07:15:03;53019.81;;;-138.15;29.10
20897;BME280;10608;42.600;23.398;2022-10-24T07:17:28;53057.28;;;-138.15;28.39
20897;BME280;10608;42.600;23.398;2022-10-24T07:19:54;53021.78;;;-138.15;25.84
20897;BME280;10608;42.600;23.398;2022-10-24T07:22:21;53055.31;;;-138.15;27.19
20897;BME280;10608;42.600;23.398;2022-10-24T07:24:53;53073.06;;;-138.15;28.31
20897;BME280;10608;42.600;23.398;2022-10-24T07:27:20;53043.47;;;-138.15;29.66
20897;BME280;10608;42.600;23.398;2022-10-24T07:29:45;53086.88;;;-138.15;30.73
20897;BME280;10608;42.600;23.398;2022-10-24T07:32:11;53023.75;;;-138.15;29.70
20897;BME280;10608;42.600;23.398;2022-10-24T07:34:38;53051.38;;;-138.15;29.91
20897;BME280;10608;42.600;23.398;2022-10-24T07:37:03;53047.44;;;-138.15;29.22
20897;BME280;10608;42.600;23.398;2022-10-24T07:39:28;53037.56;;;-138.15;26.80
20897;BME280;10608;42.600;23.398;2022-10-24T07:41:54;53013.91;;;-138.15;25.47
20897;BME280;10608;42.600;23.398;2022-10-24T07:44:20;52974.44;;;-138.15;23.76
20897;BME280;10608;42.600;23.398;2022-10-24T07:46:45;52968.53;;;-138.15;23.21
20897;BME280;10608;42.600;23.398;2022-10-24T07:49:10;53002.06;;;-138.15;23.88
20897;BME280;10608;42.600;23.398;2022-10-24T07:51:36;52970.50;;;-138.15;22.70
20897;BME280;10608;42.600;23.398;2022-10-24T07:54:01;52942.88;;;-138.15;21.68
20897;BME280;10608;42.600;23.398;2022-10-24T07:56:27;52950.78;;;-138.15;21.22
20897;BME280;10608;42.600;23.398;2022-10-24T07:58:52;52921.19;;;-138.15;20.93
20897;BME280;10608;42.600;23.398;2022-10-24T08:01:21;52946.81;;;-138.15;20.87
20897;BME280;10608;42.600;23.398;2022-10-24T08:03:47;52931.03;;;-138.15;20.93
20897;BME280;10608;42.600;23.398;2022-10-24T08:06:16;52954.72;;;-138.15;21.97
20897;BME280;10608;42.600;23.398;2022-10-24T08:08:42;52915.25;;;-138.15;20.91
20897;BME280;10608;42.600;23.398;2022-10-24T08:11:17;52954.72;;;-138.15;21.91
20897;BME280;10608;42.600;23.398;2022-10-24T08:13:43;52990.22;;;-138.15;23.15
20897;BME280;10608;42.600;23.398;2022-10-24T08:16:10;53021.78;;;-138.15;25.25
20897;BME280;10608;42.600;23.398;2022-10-24T08:18:36;53055.31;;;-138.15;28.88
20897;BME280;10608;42.600;23.398;2022-10-24T08:21:04;53049.41;;;-138.15;27.34
20897;BME280;10608;42.600;23.398;2022-10-24T08:23:32;53063.22;;;-138.15;26.90
20897;BME280;10608;42.600;23.398;2022-10-24T08:25:58;53025.72;;;-138.15;26.78
20897;BME280;10608;42.600;23.398;2022-10-24T08:28:25;53025.72;;;-138.15;26.53
20897;BME280;10608;42.600;23.398;2022-10-24T08:30:55;53057.28;;;-138.15;26.25
20897;BME280;10608;42.600;23.398;2022-10-24T08:33:20;53029.69;;;-138.15;26.33
20897;BME280;10608;42.600;23.398;2022-10-24T08:35:46;53027.69;;;-138.15;25.83
20897;BME280;10608;42.600;23.398;2022-10-24T08:38:11;53037.56;;;-138.15;25.67
20897;BME280;10608;42.600;23.398;2022-10-24T08:40:37;53017.84;;;-138.15;25.06
20897;BME280;10608;42.600;23.398;2022-10-24T08:43:03;52996.13;;;-138.15;24.99
20897;BME280;10608;42.600;23.398;2022-10-24T08:45:38;53004.03;;;-138.15;24.94
20897;BME280;10608;42.600;23.398;2022-10-24T08:48:12;52994.16;;;-138.15;25.33
20897;BME280;10608;42.600;23.398;2022-10-24T08:50:41;53033.63;;;-138.15;26.40
20897;BME280;10608;42.600;23.398;2022-10-24T08:53:12;53004.03;;;-138.15;24.80
20897;BME280;10608;42.600;23.398;2022-10-24T08:55:43;53011.91;;;-138.15;25.37
20897;BME280;10608;42.600;23.398;2022-10-24T08:58:14;53045.47;;;-138.15;25.20
20897;BME280;10608;42.600;23.398;2022-10-24T09:00:43;53017.84;;;-138.15;24.02
20897;BME280;10608;42.600;23.398;2022-10-24T09:03:41;53000.09;;;-138.15;23.13
20897;BME280;10608;42.600;23.398;2022-10-24T09:06:21;53045.47;;;-138.15;26.23
20897;BME280;10608;42.600;23.398;2022-10-24T09:08:59;53033.63;;;-138.15;24.91
20897;BME280;10608;42.600;23.398;2022-10-24T09:16:45;53023.75;;;-138.15;24.01
20897;BME280;10608;42.600;23.398;2022-10-24T09:19:15;52978.38;;;-138.15;23.38
20897;BME280;10608;42.600;23.398;2022-10-24T09:21:43;52988.25;;;-138.15;23.51
20897;BME280;10608;42.600;23.398;2022-10-24T09:27:38;53002.06;;;-138.15;23.65
20897;BME280;10608;42.600;23.398;2022-10-24T09:30:07;52931.03;;;-138.15;22.59
20897;BME280;10608;42.600;23.398;2022-10-24T09:32:34;53009.94;;;-138.15;23.51
20897;BME280;10608;42.600;23.398;2022-10-24T09:35:04;52978.38;;;-138.15;22.80
20897;BME280;10608;42.600;23.398;2022-10-24T09:40:19;53013.91;;;-138.15;23.45
20897;BME280;10608;42.600;23.398;2022-10-24T09:43:14;52992.19;;;-138.15;23.11
20897;BME280;10608;42.600;23.398;2022-10-24T09:46:00;52982.34;;;-138.15;22.02
20897;BME280;10608;42.600;23.398;2022-10-24T09:48:34;52962.59;;;-138.15;22.42
20897;BME280;10608;42.600;23.398;2022-10-24T09:51:02;52966.56;;;-138.15;22.54
20897;BME280;10608;42.600;23.398;2022-10-24T09:53:32;53004.03;;;-138.15;22.20
20897;BME280;10608;42.600;23.398;2022-10-24T09:56:06;53006.00;;;-138.15;22.68
20897;BME280;10608;42.600;23.398;2022-10-24T09:58:32;53027.69;;;-138.15;23.32
20897;BME280;10608;42.600;23.398;2022-10-24T10:01:04;53047.44;;;-138.15;25.53
20897;BME280;10608;42.600;23.398;2022-10-24T10:03:30;53067.16;;;-138.15;26.37
20897;BME280;10608;42.600;23.398;2022-10-24T10:05:58;53069.13;;;-138.15;27.13
20897;BME280;10608;42.600;23.398;2022-10-24T10:08:30;53047.44;;;-138.15;27.40
20897;BME280;10608;42.600;23.398;2022-10-24T10:11:06;53061.25;;;-138.15;27.63
20897;BME280;10608;42.600;23.398;2022-10-24T10:13:49;53049.41;;;-138.15;28.34
20897;BME280;10608;42.600;23.398;2022-10-24T10:16:27;53073.06;;;-138.15;28.42
20897;BME280;10608;42.600;23.398;2022-10-24T10:22:00;53079.00;;;-138.15;27.82
20897;BME280;10608;42.600;23.398;2022-10-24T10:24:37;53059.25;;;-138.15;28.21
20897;BME280;10608;42.600;23.398;2022-10-24T10:27:29;53096.75;;;-138.15;30.00
20897;BME280;10608;42.600;23.398;2022-10-24T10:30:16;53098.72;;;-138.15;30.40
20897;BME280;10608;42.600;23.398;2022-10-24T10:35:51;53057.28;;;-138.15;29.43
20897;BME280;10608;42.600;23.398;2022-10-24T10:38:49;53080.97;;;-138.15;29.64
20897;BME280;10608;42.600;23.398;2022-10-24T10:41:46;53079.00;;;-138.15;29.68
20897;BME280;10608;42.600;23.398;2022-10-24T10:47:26;53065.19;;;-138.15;30.31
20897;BME280;10608;42.600;23.398;2022-10-24T10:50:00;53077.03;;;-138.15;29.62
20897;BME280;10608;42.600;23.398;2022-10-24T10:52:31;53069.13;;;-138.15;28.89
20897;BME280;10608;42.600;23.398;2022-10-24T10:55:38;53065.19;;;-138.15;28.57
20897;BME280;10608;42.600;23.398;2022-10-24T10:58:14;53084.91;;;-138.15;29.77
20897;BME280;10608;42.600;23.398;2022-10-24T11:03:42;53088.84;;;-138.15;29.64
20897;BME280;10608;42.600;23.398;2022-10-24T11:06:31;53088.84;;;-138.15;30.56
20897;BME280;10608;42.600;23.398;2022-10-24T11:09:40;53079.00;;;-138.15;30.33
20897;BME280;10608;42.600;23.398;2022-10-24T11:14:47;53051.38;;;-138.15;29.32
20897;BME280;10608;42.600;23.398;2022-10-24T11:17:19;53063.22;;;-138.15;29.72
20897;BME280;10608;42.600;23.398;2022-10-24T11:19:58;53102.66;;;-138.15;30.48
20897;BME280;10608;42.600;23.398;2022-10-24T11:22:35;53065.19;;;-138.15;30.31
20897;BME280;10608;42.600;23.398;2022-10-24T11:27:42;53082.94;;;-138.15;31.17
20897;BME280;10608;42.600;23.398;2022-10-24T11:30:14;53086.88;;;-138.15;29.89
20897;BME280;10608;42.600;23.398;2022-10-24T11:32:45;53106.59;;;-138.15;29.86
20897;BME280;10608;42.600;23.398;2022-10-24T11:35:26;53047.44;;;-138.15;29.52
20897;BME280;10608;42.600;23.398;2022-10-24T11:38:01;53092.81;;;-138.15;29.32
20897;BME280;10608;42.600;23.398;2022-10-24T11:40:28;53069.13;;;-138.15;28.80
20897;BME280;10608;42.600;23.398;2022-10-24T11:45:32;53090.81;;;-138.15;29.53
20897;BME280;10608;42.600;23.398;2022-10-24T11:50:48;53061.25;;;-138.15;29.44
20897;BME280;10608;42.600;23.398;2022-10-24T11:55:49;53057.28;;;-138.15;29.27
20897;BME280;10608;42.600;23.398;2022-10-24T11:58:20;53080.97;;;-138.15;29.62
20897;BME280;10608;42.600;23.398;2022-10-24T12:09:32;53079.00;;;-138.15;29.76
20897;BME280;10608;42.600;23.398;2022-10-24T12:18:04;53075.03;;;-138.15;29.44
20897;BME280;10608;42.600;23.398;2022-10-24T12:20:32;53082.94;;;-138.15;28.68
20897;BME280;10608;42.600;23.398;2022-10-24T12:22:59;53067.16;;;-138.15;28.27
20897;BME280;10608;42.600;23.398;2022-10-24T12:25:35;53039.53;;;-138.15;28.30
20897;BME280;10608;42.600;23.398;2022-10-24T12:28:18;53065.19;;;-138.15;28.47
20897;BME280;10608;42.600;23.398;2022-10-24T12:33:33;53069.13;;;-138.15;29.02
20897;BME280;10608;42.600;23.398;2022-10-24T12:35:58;53069.13;;;-138.15;29.01
20897;BME280;10608;42.600;23.398;2022-10-24T12:41:00;53084.91;;;-138.15;28.82
20897;BME280;10608;42.600;23.398;2022-10-24T12:43:40;53082.94;;;-138.15;28.82
20897;BME280;10608;42.600;23.398;2022-10-24T12:49:40;53079.00;;;-138.15;28.19
20897;BME280;10608;42.600;23.398;2022-10-24T12:51:39;53084.91;;;-138.15;28.64
20897;BME280;10608;42.600;23.398;2022-10-24T12:59:30;53071.09;;;-138.15;28.94
20897;BME280;10608;42.600;23.398;2022-10-24T13:05:09;53080.97;;;-138.15;28.82
20897;BME280;10608;42.600;23.398;2022-10-24T13:24:35;53065.19;;;-138.15;29.13
20897;BME280;10608;42.600;23.398;2022-10-24T13:37:00;53065.19;;;-138.15;28.90
20897;BME280;10608;42.600;23.398;2022-10-24T13:39:29;53075.03;;;-138.15;28.75
20897;BME280;10608;42.600;23.398;2022-10-24T13:41:59;53073.06;;;-138.15;29.19
20897;BME280;10608;42.600;23.398;2022-10-24T13:44:31;53102.66;;;-138.15;29.50
20897;BME280;10608;42.600;23.398;2022-10-24T13:47:14;53073.06;;;-138.15;30.17
20897;BME280;10608;42.600;23.398;2022-10-24T13:50:14;53079.00;;;-138.15;30.11
20897;BME280;10608;42.600;23.398;2022-10-24T13:52:43;53069.13;;;-138.15;30.06
20897;BME280;10608;42.600;23.398;2022-10-24T13:57:49;53055.31;;;-138.15;30.39
20897;BME280;10608;42.600;23.398;2022-10-24T14:00:28;53039.53;;;-138.15;30.69
20897;BME280;10608;42.600;23.398;2022-10-24T14:02:54;53041.50;;;-138.15;29.47
20897;BME280;10608;42.600;23.398;2022-10-24T14:05:35;53080.97;;;-138.15;29.07
20897;BME280;10608;42.600;23.398;2022-10-24T14:08:02;53077.03;;;-138.15;30.44
20897;BME280;10608;42.600;23.398;2022-10-24T14:10:29;53079.00;;;-138.15;29.95
20897;BME280;10608;42.600;23.398;2022-10-24T14:12:56;53098.72;;;-138.15;30.55
20897;BME280;10608;42.600;23.398;2022-10-24T14:15:31;53073.06;;;-138.15;30.61
20897;BME280;10608;42.600;23.398;2022-10-24T14:18:03;53077.03;;;-138.15;30.61
20897;BME280;10608;42.600;23.398;2022-10-24T14:20:35;53084.91;;;-138.15;29.26
20897;BME280;10608;42.600;23.398;2022-10-24T14:23:01;53080.97;;;-138.15;30.14
20897;BME280;10608;42.600;23.398;2022-10-24T14:25:32;53104.63;;;-138.15;30.97
20897;BME280;10608;42.600;23.398;2022-10-24T14:28:09;53096.75;;;-138.15;31.59
20897;BME280;10608;42.600;23.398;2022-10-24T14:30:35;53069.13;;;-138.15;31.53